createdAt,value
2018-08-22T00:01:33.613Z,77.60
2018-08-22T00:04:02.256Z,78.00
2018-08-22T00:06:30.928Z,78.10
2018-08-22T00:08:59.629Z,78.30
2018-08-22T00:11:28.291Z,77.90
2018-08-22T00:13:56.968Z,78.00
2018-08-22T00:16:25.679Z,78.30
2018-08-22T00:18:54.370Z,79.00
2018-08-22T00:21:23.952Z,79.40
2018-08-22T00:23:52.601Z,79.60
2018-08-22T00:26:21.270Z,79.80
2018-08-22T00:28:49.932Z,80.10
2018-08-22T00:31:18.585Z,80.40
2018-08-22T00:33:47.230Z,80.60
2018-08-22T00:36:15.915Z,81.00
2018-08-22T00:38:44.568Z,81.10
2018-08-22T00:41:13.265Z,80.30
2018-08-22T00:43:41.925Z,79.60
2018-08-22T00:46:10.572Z,79.10
2018-08-22T00:48:39.196Z,79.60
2018-08-22T00:51:07.859Z,79.80
2018-08-22T00:53:36.495Z,79.30
2018-08-22T00:56:05.224Z,79.70
2018-08-22T00:58:33.908Z,79.80
2018-08-22T01:01:02.569Z,79.90
2018-08-22T01:03:31.209Z,80.00
2018-08-22T01:05:59.855Z,80.10
2018-08-22T01:08:28.508Z,80.30
2018-08-22T01:10:57.188Z,80.70
2018-08-22T01:13:25.867Z,81.70
2018-08-22T01:15:54.583Z,81.90
2018-08-22T01:18:23.251Z,82.10
2018-08-22T01:20:51.904Z,82.10
2018-08-22T01:23:20.529Z,81.90
2018-08-22T01:25:49.176Z,81.60
2018-08-22T01:28:17.812Z,82.10
2018-08-22T01:30:46.468Z,82.20
2018-08-22T01:33:15.171Z,82.70
2018-08-22T01:35:43.847Z,82.90
2018-08-22T01:38:12.486Z,83.30
2018-08-22T01:40:41.170Z,83.10
2018-08-22T01:43:09.812Z,82.60
2018-08-22T01:45:38.428Z,82.90
2018-08-22T01:48:07.104Z,83.00
2018-08-22T01:50:35.743Z,83.40
2018-08-22T01:53:04.440Z,83.40
2018-08-22T01:55:33.100Z,83.50
2018-08-22T01:58:01.752Z,83.60
2018-08-22T02:00:30.396Z,84.00
2018-08-22T02:02:59.034Z,84.10
2018-08-22T02:05:27.684Z,84.80
2018-08-22T02:07:56.320Z,84.80
2018-08-22T02:10:24.951Z,84.80
2018-08-22T02:12:53.615Z,84.70
2018-08-22T02:15:22.284Z,85.40
2018-08-22T02:17:50.919Z,85.40
2018-08-22T02:20:19.543Z,84.60
2018-08-22T02:22:48.155Z,83.90
2018-08-22T02:25:16.790Z,83.60
2018-08-22T02:27:45.440Z,83.60
2018-08-22T02:30:14.075Z,83.60
2018-08-22T02:32:42.704Z,84.30
2018-08-22T02:35:11.352Z,84.90
2018-08-22T02:37:39.971Z,84.90
2018-08-22T02:40:08.617Z,85.10
2018-08-22T02:42:37.252Z,85.20
2018-08-22T02:45:05.951Z,85.30
2018-08-22T02:47:34.581Z,85.40
2018-08-22T02:50:03.302Z,85.20
2018-08-22T02:52:31.947Z,84.80
2018-08-22T02:55:00.843Z,85.40
2018-08-22T02:57:29.550Z,86.00
2018-08-22T02:59:58.244Z,86.40
2018-08-22T03:02:26.876Z,86.40
2018-08-22T03:04:55.559Z,86.10
2018-08-22T03:07:24.252Z,85.90
2018-08-22T03:09:52.900Z,86.30
2018-08-22T03:12:21.572Z,85.60
2018-08-22T03:14:50.227Z,85.80
2018-08-22T03:17:18.899Z,85.80
2018-08-22T03:19:47.508Z,86.40
2018-08-22T03:22:16.301Z,87.10
2018-08-22T03:24:44.924Z,87.40
2018-08-22T03:27:13.565Z,88.30
2018-08-22T03:29:42.205Z,89.00
2018-08-22T03:32:10.902Z,89.30
2018-08-22T03:34:39.532Z,89.30
2018-08-22T03:37:08.156Z,89.50
2018-08-22T03:39:36.840Z,89.70
2018-08-22T03:42:05.517Z,89.80
2018-08-22T03:44:34.174Z,89.60
2018-08-22T03:47:02.872Z,89.30
2018-08-22T03:49:31.487Z,88.50
2018-08-22T03:52:00.160Z,88.70
2018-08-22T03:54:28.840Z,89.00
2018-08-22T03:56:57.488Z,89.20
2018-08-22T03:59:26.124Z,89.00
2018-08-22T04:01:54.759Z,89.40
2018-08-22T04:04:23.402Z,89.30
2018-08-22T04:06:52.078Z,89.00
2018-08-22T04:09:20.828Z,88.80
2018-08-22T04:11:49.452Z,88.60
2018-08-22T04:14:18.130Z,88.30
2018-08-22T04:16:46.764Z,87.80
2018-08-22T04:19:15.451Z,88.40
2018-08-22T04:21:44.103Z,88.00
2018-08-22T04:24:12.732Z,89.10
2018-08-22T04:26:41.365Z,90.00
2018-08-22T04:29:10.015Z,90.00
2018-08-22T04:31:38.656Z,90.30
2018-08-22T04:34:07.320Z,90.50
2018-08-22T04:36:35.965Z,90.60
2018-08-22T04:39:06.148Z,90.70
2018-08-22T04:41:34.787Z,91.00
2018-08-22T04:44:03.438Z,90.90
2018-08-22T04:46:32.582Z,90.90
2018-08-22T04:49:01.284Z,90.90
2018-08-22T04:51:29.943Z,90.90
2018-08-22T04:53:58.589Z,91.40
2018-08-22T04:56:27.256Z,91.20
2018-08-22T04:58:55.908Z,91.30
2018-08-22T05:01:24.499Z,91.30
2018-08-22T05:03:53.139Z,91.30
2018-08-22T05:06:21.865Z,91.40
2018-08-22T05:08:50.515Z,91.60
2018-08-22T05:11:19.223Z,91.60
2018-08-22T05:13:48.130Z,91.50
2018-08-22T05:16:16.756Z,91.40
2018-08-22T05:18:45.441Z,91.20
2018-08-22T05:21:14.069Z,91.10
2018-08-22T05:23:42.692Z,91.10
2018-08-22T05:26:11.665Z,91.00
2018-08-22T05:28:40.337Z,90.90
2018-08-22T05:31:08.984Z,91.30
2018-08-22T05:33:37.595Z,90.90
2018-08-22T05:36:06.040Z,91.00
2018-08-22T05:38:34.655Z,91.00
2018-08-22T05:41:03.271Z,90.90
2018-08-22T05:43:31.958Z,91.00
2018-08-22T05:46:00.605Z,90.90
2018-08-22T05:48:29.271Z,90.90
2018-08-22T05:50:57.913Z,91.10
2018-08-22T05:53:26.609Z,91.10
2018-08-22T05:55:55.598Z,91.20
2018-08-22T05:58:24.902Z,91.20
2018-08-22T06:00:53.607Z,91.10
2018-08-22T06:03:22.471Z,91.10
2018-08-22T06:05:51.262Z,90.90
2018-08-22T06:08:19.971Z,90.80
2018-08-22T06:10:48.572Z,90.80
2018-08-22T06:13:17.160Z,90.90
2018-08-22T06:15:46.378Z,91.00
2018-08-22T06:18:14.972Z,91.00
2018-08-22T06:20:43.549Z,90.90
2018-08-22T06:23:12.128Z,90.90
2018-08-22T06:25:41.111Z,90.70
2018-08-22T06:28:10.144Z,90.60
2018-08-22T06:30:39.132Z,90.40
2018-08-22T06:33:08.195Z,90.00
2018-08-22T06:35:37.099Z,88.10
2018-08-22T06:38:06.132Z,86.70
2018-08-22T06:40:35.047Z,84.60
2018-08-22T06:43:04.044Z,82.60
2018-08-22T06:45:32.627Z,80.80
2018-08-22T06:48:01.211Z,80.70
2018-08-22T06:50:29.801Z,78.80
2018-08-22T06:52:58.505Z,77.00
2018-08-22T06:58:29.535Z,73.80
2018-08-22T07:01:19.261Z,71.50
2018-08-22T07:03:48.023Z,70.20
2018-08-22T07:06:25.886Z,67.90
2018-08-22T07:09:06.816Z,65.80
2018-08-22T07:11:37.105Z,64.40
2018-08-22T07:14:07.155Z,62.60
2018-08-22T07:16:40.956Z,60.80
2018-08-22T07:19:10.890Z,60.50
2018-08-22T07:21:39.660Z,59.90
2018-08-22T07:24:11.729Z,57.90
2018-08-22T07:29:53.812Z,55.60
2018-08-22T07:32:24.111Z,55.80
2018-08-22T07:34:55.692Z,54.50
2018-08-22T07:37:28.596Z,54.10
2018-08-22T07:39:57.514Z,54.20
2018-08-22T07:42:31.521Z,53.00
2018-08-22T07:45:01.239Z,52.20
2018-08-22T07:47:29.881Z,51.70
2018-08-22T07:49:58.529Z,52.10
2018-08-22T07:52:27.164Z,51.80
2018-08-22T07:54:55.803Z,52.30
2018-08-22T07:57:24.440Z,52.10
2018-08-22T07:59:53.767Z,51.90
2018-08-22T08:02:22.437Z,52.10
2018-08-22T08:04:51.141Z,52.50
2018-08-22T08:07:19.772Z,51.80
2018-08-22T08:09:48.447Z,52.20
2018-08-22T08:12:18.725Z,52.40
2018-08-22T08:14:51.870Z,52.30
2018-08-22T08:17:20.556Z,52.40
2018-08-22T08:19:49.212Z,52.90
2018-08-22T08:22:17.977Z,52.80
2018-08-22T08:24:46.629Z,52.60
2018-08-22T08:27:15.313Z,52.80
2018-08-22T08:29:43.953Z,53.10
2018-08-22T08:32:12.597Z,53.90
2018-08-22T08:34:41.228Z,54.30
2018-08-22T08:37:09.918Z,54.20
2018-08-22T08:39:38.604Z,53.70
2018-08-22T08:42:07.266Z,52.70
2018-08-22T08:44:35.955Z,52.50
2018-08-22T08:47:04.592Z,51.80
2018-08-22T08:49:33.282Z,52.00
2018-08-22T08:52:02.660Z,51.30
2018-08-22T08:54:31.347Z,51.30
2018-08-22T08:57:00.022Z,50.60
2018-08-22T08:59:28.681Z,50.30
2018-08-22T09:01:57.370Z,50.40
2018-08-22T09:04:26.041Z,50.80
2018-08-22T09:06:54.812Z,51.00
2018-08-22T09:09:23.456Z,51.40
2018-08-22T09:11:59.675Z,51.60
2018-08-22T09:14:29.011Z,51.80
2018-08-22T09:16:58.582Z,50.80
2018-08-22T09:19:27.533Z,50.50
2018-08-22T09:21:56.241Z,49.80
2018-08-22T09:24:24.911Z,49.20
2018-08-22T09:26:53.617Z,48.10
2018-08-22T09:29:22.284Z,48.50
2018-08-22T09:31:50.982Z,48.40
2018-08-22T09:34:22.373Z,48.70
2018-08-22T09:36:55.256Z,49.30
2018-08-22T09:39:29.777Z,48.90
2018-08-22T09:42:03.997Z,49.00
2018-08-22T09:44:37.995Z,48.60
2018-08-22T09:47:14.599Z,48.50
2018-08-22T09:52:29.219Z,48.70
2018-08-22T09:55:11.121Z,47.70
2018-08-22T09:57:40.968Z,47.00
2018-08-22T10:00:19.920Z,46.60
2018-08-22T10:02:53.020Z,46.00
2018-08-22T10:05:27.044Z,45.80
2018-08-22T10:07:57.974Z,46.30
2018-08-22T10:10:32.997Z,45.70
2018-08-22T10:13:04.012Z,45.10
2018-08-22T10:15:36.652Z,45.50
2018-08-22T10:18:07.150Z,45.30
2018-08-22T10:20:49.460Z,44.80
2018-08-22T10:23:20.239Z,45.00
2018-08-22T10:26:00.845Z,45.10
2018-08-22T10:28:46.277Z,45.40
2018-08-22T10:31:25.005Z,46.70
2018-08-22T10:34:02.935Z,46.70
2018-08-22T10:36:35.611Z,47.00
2018-08-22T10:41:42.696Z,46.80
2018-08-22T10:44:23.842Z,46.20
2018-08-22T10:47:02.504Z,46.90
2018-08-22T10:49:33.329Z,46.40
2018-08-22T10:52:08.224Z,46.20
2018-08-22T10:54:42.869Z,45.90
2018-08-22T10:57:26.926Z,45.80
2018-08-22T10:59:59.367Z,45.40
2018-08-22T11:02:33.344Z,46.60
2018-08-22T11:05:05.001Z,46.20
2018-08-22T11:07:36.120Z,46.20
2018-08-22T11:10:14.383Z,46.50
2018-08-22T11:13:01.989Z,46.50
2018-08-22T11:15:33.604Z,46.60
2018-08-22T11:18:08.110Z,45.70
2018-08-22T11:20:51.715Z,45.70
2018-08-22T11:23:33.853Z,45.30
2018-08-22T11:26:15.096Z,45.00
2018-08-22T11:29:01.457Z,44.60
2018-08-22T11:31:42.925Z,44.40
2018-08-22T11:34:24.604Z,44.20
2018-08-22T11:37:11.556Z,43.90
2018-08-22T11:39:45.349Z,43.70
2018-08-22T11:42:18.300Z,44.40
2018-08-22T11:44:50.619Z,43.80
2018-08-22T11:47:23.162Z,43.70
2018-08-22T11:50:06.824Z,43.30
2018-08-22T11:52:44.475Z,43.30
2018-08-22T11:55:29.944Z,43.00
2018-08-22T11:58:05.318Z,43.00
2018-08-22T12:00:39.968Z,42.00
2018-08-22T12:03:16.940Z,41.70
2018-08-22T12:05:50.663Z,42.30
2018-08-22T12:08:21.421Z,42.20
2018-08-22T12:10:56.410Z,42.20
2018-08-22T12:13:42.590Z,41.50
2018-08-22T12:16:14.093Z,40.60
2018-08-22T12:18:49.800Z,40.20
2018-08-22T12:21:29.043Z,39.80
2018-08-22T12:24:08.227Z,39.70
2018-08-22T12:26:57.153Z,39.70
2018-08-22T12:29:32.313Z,39.60
2018-08-22T12:32:10.424Z,39.60
2018-08-22T12:34:45.394Z,39.90
2018-08-22T12:37:22.802Z,39.80
2018-08-22T12:39:55.740Z,40.10
2018-08-22T12:42:39.191Z,39.80
2018-08-22T12:45:13.981Z,40.00
2018-08-22T12:47:47.198Z,39.30
2018-08-22T12:50:20.630Z,39.10
2018-08-22T12:52:59.624Z,38.70
2018-08-22T12:55:34.359Z,39.40
2018-08-22T12:58:10.620Z,40.50
2018-08-22T13:00:45.471Z,39.50
2018-08-22T13:03:16.003Z,39.40
2018-08-22T13:05:50.801Z,38.80
2018-08-22T13:08:21.757Z,38.60
2018-08-22T13:10:51.177Z,39.60
2018-08-22T13:13:25.605Z,40.80
2018-08-22T13:15:59.568Z,40.90
2018-08-22T13:18:31.014Z,41.20
2018-08-22T13:21:03.033Z,42.10
2018-08-22T13:23:34.631Z,42.30
2018-08-22T13:28:56.367Z,42.70
2018-08-22T13:31:31.409Z,43.30
2018-08-22T13:34:10.759Z,43.70
2018-08-22T13:36:43.162Z,43.50
2018-08-22T13:39:25.229Z,43.80
2018-08-22T13:45:00.435Z,43.40
2018-08-22T13:47:34.472Z,43.70
2018-08-22T13:50:07.068Z,42.30
2018-08-22T13:52:43.548Z,41.90
2018-08-22T13:55:15.639Z,42.40
2018-08-22T13:57:49.447Z,42.40
2018-08-22T14:00:29.645Z,41.70
2018-08-22T14:03:01.950Z,42.70
2018-08-22T14:08:16.929Z,44.10
2018-08-22T14:10:50.652Z,45.30
2018-08-22T14:13:28.490Z,46.30
2018-08-22T14:16:00.826Z,46.90
2018-08-22T14:18:39.957Z,47.00
2018-08-22T14:21:20.801Z,45.50
2018-08-22T14:24:18.778Z,46.70
2018-08-22T14:26:57.194Z,48.00
2018-08-22T14:29:34.234Z,49.10
2018-08-22T14:32:13.488Z,50.60
2018-08-22T14:37:44.765Z,50.10
2018-08-22T14:40:21.932Z,49.50
2018-08-22T14:43:03.637Z,48.60
2018-08-22T14:45:40.371Z,48.00
2018-08-22T14:48:19.760Z,47.30
2018-08-22T14:51:04.514Z,46.70
2018-08-22T14:53:37.871Z,46.70
2018-08-22T14:56:16.715Z,46.30
2018-08-22T14:58:53.980Z,47.00
2018-08-22T15:01:42.204Z,46.10
2018-08-22T15:04:22.145Z,46.60
2018-08-22T15:06:55.680Z,46.10
2018-08-22T15:09:27.575Z,45.40
2018-08-22T15:12:05.724Z,44.80
2018-08-22T15:14:38.109Z,44.70
2018-08-22T15:17:16.872Z,44.40
2018-08-22T15:19:57.743Z,44.40
2018-08-22T15:22:35.365Z,44.60
2018-08-22T15:25:20.180Z,44.80
2018-08-22T15:27:56.061Z,45.30
2018-08-22T15:30:39.403Z,44.80
2018-08-22T15:33:25.468Z,45.00
2018-08-22T15:36:07.412Z,46.80
2018-08-22T15:38:44.328Z,53.00
2018-08-22T15:41:17.757Z,54.70
2018-08-22T15:43:50.288Z,56.30
2018-08-22T15:46:29.460Z,58.30
2018-08-22T15:49:10.621Z,60.20
2018-08-22T15:51:44.786Z,62.30
2018-08-22T15:54:18.976Z,63.80
2018-08-22T15:56:52.668Z,65.50
2018-08-22T15:59:29.269Z,66.40
2018-08-22T16:02:02.359Z,68.40
2018-08-22T16:04:49.757Z,69.10
2018-08-22T16:07:30.048Z,69.40
2018-08-22T16:10:26.878Z,70.40
2018-08-22T16:13:01.990Z,71.30
2018-08-22T16:15:39.893Z,71.70
2018-08-22T16:18:26.111Z,72.90
2018-08-22T16:21:17.727Z,73.90
2018-08-22T16:26:42.970Z,74.70
2018-08-22T16:29:25.373Z,76.10
2018-08-22T16:32:03.741Z,76.40
2018-08-22T16:34:42.863Z,77.10
2018-08-22T16:37:59.887Z,78.10
2018-08-22T16:40:39.411Z,77.60
2018-08-22T16:43:13.800Z,77.30
2018-08-22T16:45:52.144Z,77.70
2018-08-22T16:48:23.583Z,78.60
2018-08-22T16:51:02.013Z,79.20
2018-08-22T16:53:36.016Z,79.90
2018-08-22T16:56:11.985Z,80.00
2018-08-22T16:58:44.089Z,78.30
2018-08-22T17:01:23.309Z,76.50
2018-08-22T17:03:59.406Z,75.60
2018-08-22T17:06:39.488Z,75.50
2018-08-22T17:09:21.519Z,74.70
2018-08-22T17:11:59.056Z,73.70
2018-08-22T17:17:17.317Z,73.10
2018-08-22T17:19:51.336Z,72.40
2018-08-22T17:22:25.025Z,71.50
2018-08-22T17:25:03.717Z,71.40
2018-08-22T17:27:38.710Z,72.10
2018-08-22T17:30:16.933Z,71.80
2018-08-22T17:32:52.705Z,72.60
2018-08-22T17:35:36.520Z,72.10
2018-08-22T17:38:22.276Z,72.40
2018-08-22T17:40:56.808Z,72.80
2018-08-22T17:43:32.972Z,72.30
2018-08-22T17:46:16.674Z,72.00
2018-08-22T17:49:06.142Z,72.50
2018-08-22T17:51:44.605Z,72.10
2018-08-22T17:54:13.204Z,74.20
2018-08-22T17:56:41.800Z,73.70
2018-08-22T17:59:10.439Z,73.10
2018-08-22T18:01:39.037Z,73.60
2018-08-22T18:04:07.651Z,75.00
2018-08-22T18:06:36.256Z,75.60
2018-08-22T18:09:05.812Z,77.20
2018-08-22T18:11:34.425Z,77.40
2018-08-22T18:14:03.081Z,78.00
2018-08-22T18:16:31.734Z,78.30
2018-08-22T18:19:00.341Z,78.80
2018-08-22T18:21:33.380Z,78.60
2018-08-22T18:24:02.539Z,79.10
2018-08-22T18:26:31.187Z,79.10
2018-08-22T18:28:59.792Z,79.50
2018-08-22T18:31:28.393Z,78.90
2018-08-22T18:33:59.103Z,77.90
2018-08-22T18:36:31.710Z,78.20
2018-08-22T18:39:04.912Z,79.20
2018-08-22T18:41:33.512Z,79.20
2018-08-22T18:44:02.412Z,79.10
2018-08-22T18:46:31.043Z,79.00
2018-08-22T18:49:00.735Z,78.90
2018-08-22T18:51:29.364Z,78.40
2018-08-22T18:53:58.948Z,79.00
2018-08-22T18:56:28.346Z,78.80
2018-08-22T18:58:56.971Z,79.70
2018-08-22T19:01:26.015Z,79.50
2018-08-22T19:03:56.339Z,78.90
2018-08-22T19:06:25.005Z,79.00
2018-08-22T19:08:53.608Z,80.40
2018-08-22T19:11:22.285Z,81.50
2018-08-22T19:13:50.883Z,82.60
2018-08-22T19:16:19.751Z,83.00
2018-08-22T19:18:48.358Z,82.90
2018-08-22T19:21:16.940Z,83.20
2018-08-22T19:23:50.035Z,82.60
2018-08-22T19:26:18.748Z,82.00
2018-08-22T19:28:55.800Z,82.00
2018-08-22T19:31:24.431Z,82.10
2018-08-22T19:33:54.172Z,82.40
2018-08-22T19:36:22.915Z,83.10
2018-08-22T19:38:51.674Z,83.40
2018-08-22T19:41:24.064Z,83.30
2018-08-22T19:43:52.936Z,82.90
2018-08-22T19:46:22.096Z,82.60
2018-08-22T19:48:51.533Z,82.40
2018-08-22T19:51:20.640Z,83.00
2018-08-22T19:53:57.343Z,82.90
2018-08-22T19:56:26.634Z,83.30
2018-08-22T19:58:55.229Z,84.10
2018-08-22T20:01:23.843Z,83.80
2018-08-22T20:03:53.971Z,84.40
2018-08-22T20:06:23.115Z,84.60
2018-08-22T20:08:53.563Z,84.90
2018-08-22T20:11:22.288Z,85.20
2018-08-22T20:13:56.144Z,85.80
2018-08-22T20:16:24.828Z,86.10
2018-08-22T20:18:55.528Z,86.90
2018-08-22T20:21:34.905Z,87.50
2018-08-22T20:24:05.186Z,88.10
2018-08-22T20:26:34.056Z,88.30
2018-08-22T20:29:03.605Z,88.80
2018-08-22T20:31:32.938Z,89.20
2018-08-22T20:34:10.404Z,89.90
2018-08-22T20:36:39.098Z,90.10
2018-08-22T20:39:10.050Z,90.00
2018-08-22T20:41:40.090Z,90.00
2018-08-22T20:44:11.272Z,90.10
2018-08-22T20:46:41.652Z,90.20
2018-08-22T20:49:10.342Z,90.20
2018-08-22T20:51:38.935Z,90.20
2018-08-22T20:54:12.720Z,90.10
2018-08-22T20:56:47.472Z,90.10
2018-08-22T20:59:17.448Z,90.20
2018-08-22T21:01:48.816Z,90.10
2018-08-22T21:04:17.420Z,89.90
2018-08-22T21:06:46.113Z,89.00
2018-08-22T21:09:14.707Z,89.10
2018-08-22T21:11:43.856Z,89.40
2018-08-22T21:14:13.208Z,89.70
2018-08-22T21:16:41.836Z,89.80
2018-08-22T21:19:10.452Z,90.00
2018-08-22T21:21:39.079Z,90.20
2018-08-22T21:24:07.703Z,90.50
2018-08-22T21:26:41.049Z,90.70
2018-08-22T21:29:09.978Z,90.90
2018-08-22T21:31:38.601Z,91.20
2018-08-22T21:34:13.562Z,91.20
2018-08-22T21:36:44.724Z,91.20
2018-08-22T21:39:18.817Z,91.00
2018-08-22T21:41:47.886Z,90.90
2018-08-22T21:44:19.224Z,91.00
2018-08-22T21:46:58.559Z,91.20
2018-08-22T21:49:29.762Z,91.10
2018-08-22T21:52:02.324Z,90.60
2018-08-22T21:54:31.559Z,90.30
2018-08-22T21:57:00.318Z,90.00
2018-08-22T21:59:29.504Z,90.40
2018-08-22T22:02:03.673Z,90.30
2018-08-22T22:04:36.156Z,90.40
2018-08-22T22:07:06.672Z,90.30
2018-08-22T22:09:36.684Z,90.10
2018-08-22T22:12:11.359Z,90.00
2018-08-22T22:14:45.260Z,90.20
2018-08-22T22:17:13.939Z,90.00
2018-08-22T22:19:42.601Z,90.10
2018-08-22T22:22:11.231Z,90.30
2018-08-22T22:24:50.431Z,90.50
2018-08-22T22:27:19.097Z,90.90
2018-08-22T22:29:47.693Z,91.10
2018-08-22T22:32:16.334Z,91.10
2018-08-22T22:34:44.964Z,91.00
2018-08-22T22:37:13.559Z,90.90
2018-08-22T22:39:43.612Z,90.90
2018-08-22T22:42:21.554Z,90.70
2018-08-22T22:44:52.268Z,90.90
2018-08-22T22:47:26.392Z,90.60
2018-08-22T22:49:55.547Z,90.30
2018-08-22T22:52:31.505Z,90.10
2018-08-22T22:55:01.512Z,90.00
2018-08-22T22:57:32.273Z,90.50
2018-08-22T23:00:01.776Z,90.50
2018-08-22T23:02:30.943Z,90.70
2018-08-22T23:05:00.271Z,91.00
2018-08-22T23:07:35.419Z,91.30
2018-08-22T23:10:05.410Z,91.30
2018-08-22T23:12:48.365Z,91.30
2018-08-22T23:15:20.149Z,91.40
2018-08-22T23:17:49.846Z,91.40
2018-08-22T23:20:30.380Z,91.40
2018-08-22T23:22:59.337Z,91.50
2018-08-22T23:25:28.464Z,91.50
2018-08-22T23:27:57.217Z,91.80
2018-08-22T23:30:32.195Z,91.90
2018-08-22T23:33:00.879Z,92.20
2018-08-22T23:35:30.960Z,92.30
2018-08-22T23:38:01.612Z,92.30
2018-08-22T23:40:33.243Z,92.30
2018-08-22T23:43:02.135Z,91.90
2018-08-22T23:45:35.903Z,91.70
2018-08-22T23:48:05.540Z,91.60
2018-08-22T23:50:56.832Z,91.70
2018-08-22T23:53:47.393Z,91.80
2018-08-22T23:56:32.876Z,91.90
2018-08-22T23:59:27.539Z,92.10
